createdAt,value
2018-11-26T00:02:16.606Z,6.70
2018-11-26T00:06:56.848Z,6.70
2018-11-26T00:11:38.441Z,6.60
2018-11-26T00:16:19.047Z,6.60
2018-11-26T00:20:59.311Z,6.60
2018-11-26T00:25:39.407Z,6.60
2018-11-26T00:30:19.575Z,6.60
2018-11-26T00:34:59.989Z,6.60
2018-11-26T00:39:39.896Z,6.60
2018-11-26T00:44:20.550Z,6.60
2018-11-26T00:49:00.723Z,6.50
2018-11-26T00:53:41.190Z,6.50
2018-11-26T00:58:21.791Z,6.50
2018-11-26T01:03:02.266Z,6.50
2018-11-26T01:07:43.191Z,6.40
2018-11-26T01:12:23.114Z,6.40
2018-11-26T01:17:03.509Z,6.50
2018-11-26T01:21:43.219Z,6.40
2018-11-26T01:26:23.006Z,6.40
2018-11-26T01:31:03.263Z,6.40
2018-11-26T01:35:43.267Z,6.30
2018-11-26T01:40:29.326Z,6.30
2018-11-26T01:45:10.151Z,6.30
2018-11-26T01:49:50.410Z,6.30
2018-11-26T01:54:30.576Z,6.20
2018-11-26T01:59:11.372Z,6.20
2018-11-26T02:03:51.556Z,6.20
2018-11-26T02:08:31.666Z,6.20
2018-11-26T02:13:11.771Z,6.20
2018-11-26T02:17:51.838Z,6.10
2018-11-26T02:22:31.971Z,6.10
2018-11-26T02:27:13.044Z,6.10
2018-11-26T02:31:53.601Z,6.10
2018-11-26T02:36:33.995Z,6.00
2018-11-26T02:41:15.384Z,6.00
2018-11-26T02:45:55.423Z,6.00
2018-11-26T02:50:35.787Z,6.00
2018-11-26T02:55:15.718Z,6.00
2018-11-26T02:59:55.888Z,6.00
2018-11-26T03:04:35.807Z,6.00
2018-11-26T03:09:16.661Z,6.00
2018-11-26T03:13:57.280Z,5.90
2018-11-26T03:18:37.547Z,6.00
2018-11-26T03:23:17.903Z,5.90
2018-11-26T03:27:58.399Z,5.90
2018-11-26T03:32:38.901Z,6.00
2018-11-26T03:37:19.252Z,5.90
2018-11-26T03:41:59.553Z,6.00
2018-11-26T03:46:39.915Z,6.00
2018-11-26T03:51:19.858Z,5.90
2018-11-26T03:55:59.946Z,6.00
2018-11-26T04:00:40.317Z,5.90
2018-11-26T04:05:20.995Z,5.90
2018-11-26T04:10:00.886Z,5.90
2018-11-26T04:14:42.036Z,5.90
2018-11-26T04:19:22.275Z,6.00
2018-11-26T04:24:02.895Z,5.90
2018-11-26T04:28:43.195Z,6.00
2018-11-26T04:33:23.299Z,5.90
2018-11-26T04:38:04.291Z,5.90
2018-11-26T04:42:44.246Z,6.00
2018-11-26T04:47:24.223Z,6.00
2018-11-26T04:52:04.743Z,6.00
2018-11-26T04:56:46.901Z,6.00
2018-11-26T05:01:27.134Z,6.10
2018-11-26T05:06:07.670Z,6.10
2018-11-26T05:10:47.930Z,6.10
2018-11-26T05:15:28.055Z,6.10
2018-11-26T05:20:12.299Z,6.10
2018-11-26T05:24:52.637Z,6.10
2018-11-26T05:29:32.744Z,6.10
2018-11-26T05:34:12.783Z,6.10
2018-11-26T05:38:53.780Z,6.10
2018-11-26T05:43:34.544Z,6.10
2018-11-26T05:48:14.839Z,6.10
2018-11-26T05:52:55.610Z,6.10
2018-11-26T05:57:35.702Z,6.10
2018-11-26T06:02:16.889Z,6.10
2018-11-26T06:06:58.188Z,6.10
2018-11-26T06:11:39.510Z,6.10
2018-11-26T06:16:19.668Z,6.20
2018-11-26T06:21:00.106Z,6.10
2018-11-26T06:25:41.305Z,6.20
2018-11-26T06:30:22.345Z,6.20
2018-11-26T06:35:03.571Z,6.20
2018-11-26T06:39:44.827Z,6.20
2018-11-26T06:44:24.942Z,6.20
2018-11-26T06:49:05.327Z,6.20
2018-11-26T06:53:46.230Z,6.20
2018-11-26T06:58:26.254Z,6.20
2018-11-26T07:03:07.221Z,6.20
2018-11-26T07:07:48.428Z,6.20
2018-11-26T07:12:29.210Z,6.20
2018-11-26T07:17:09.290Z,6.20
2018-11-26T07:21:49.417Z,6.20
2018-11-26T07:26:29.910Z,6.20
2018-11-26T07:31:10.955Z,6.20
2018-11-26T07:35:51.092Z,6.20
2018-11-26T07:40:32.095Z,6.30
2018-11-26T07:45:14.522Z,6.20
2018-11-26T07:49:55.212Z,6.30
2018-11-26T07:54:35.567Z,6.30
2018-11-26T07:59:15.786Z,6.30
2018-11-26T08:03:56.716Z,6.20
2018-11-26T08:08:37.590Z,6.30
2018-11-26T08:13:17.788Z,6.30
2018-11-26T08:17:58.418Z,6.30
2018-11-26T08:22:39.121Z,6.40
2018-11-26T08:27:20.053Z,6.40
2018-11-26T08:32:01.152Z,6.40
2018-11-26T08:36:44.540Z,6.40
2018-11-26T08:41:43.615Z,6.50
2018-11-26T08:46:29.218Z,6.50
2018-11-26T08:51:10.515Z,6.50
2018-11-26T08:55:50.824Z,6.50
2018-11-26T09:00:30.754Z,6.60
2018-11-26T09:05:16.144Z,6.60
2018-11-26T09:09:57.104Z,6.60
2018-11-26T09:14:37.233Z,6.70
2018-11-26T09:19:18.152Z,6.70
2018-11-26T09:23:59.448Z,6.80
2018-11-26T09:28:41.068Z,6.80
2018-11-26T09:33:21.582Z,6.80
2018-11-26T09:38:03.029Z,6.80
2018-11-26T09:42:44.363Z,6.80
2018-11-26T09:47:24.920Z,6.80
2018-11-26T09:52:05.711Z,6.70
2018-11-26T09:56:47.126Z,6.70
2018-11-26T10:01:27.411Z,6.70
2018-11-26T10:06:07.390Z,6.70
2018-11-26T10:10:47.655Z,6.70
2018-11-26T10:15:28.214Z,6.60
2018-11-26T10:20:09.453Z,6.60
2018-11-26T10:24:50.284Z,6.70
2018-11-26T10:29:30.670Z,6.80
2018-11-26T10:34:11.249Z,6.80
2018-11-26T10:38:51.171Z,6.80
2018-11-26T10:43:31.674Z,6.80
2018-11-26T10:48:12.530Z,6.90
2018-11-26T10:52:56.684Z,6.90
2018-11-26T10:57:38.627Z,6.90
2018-11-26T11:02:24.919Z,6.90
2018-11-26T11:07:05.739Z,6.80
2018-11-26T11:11:45.988Z,6.90
2018-11-26T11:16:26.344Z,7.00
2018-11-26T11:21:07.163Z,7.10
2018-11-26T11:25:48.819Z,7.30
2018-11-26T11:30:31.590Z,7.40
2018-11-26T11:35:13.142Z,7.40
2018-11-26T11:39:53.367Z,7.30
2018-11-26T11:44:35.719Z,7.30
2018-11-26T11:49:15.406Z,7.40
2018-11-26T11:53:55.935Z,7.50
2018-11-26T11:58:37.500Z,7.50
2018-11-26T12:03:19.022Z,7.50
2018-11-26T12:08:00.232Z,7.50
2018-11-26T12:12:41.262Z,7.40
2018-11-26T12:17:22.435Z,7.40
2018-11-26T12:22:02.860Z,7.40
2018-11-26T12:26:44.080Z,7.50
2018-11-26T12:31:25.193Z,7.50
2018-11-26T12:36:06.145Z,7.50
2018-11-26T12:40:47.211Z,7.50
2018-11-26T12:45:29.580Z,7.50
2018-11-26T12:50:10.050Z,7.50
2018-11-26T12:54:50.270Z,7.50
2018-11-26T12:59:30.367Z,7.50
2018-11-26T13:04:10.845Z,7.40
2018-11-26T13:08:51.859Z,7.40
2018-11-26T13:13:31.887Z,7.40
2018-11-26T13:18:12.232Z,7.40
2018-11-26T13:22:52.949Z,7.30
2018-11-26T13:27:33.530Z,7.30
2018-11-26T13:32:15.389Z,7.30
2018-11-26T13:36:56.618Z,7.30
2018-11-26T13:41:37.650Z,7.30
2018-11-26T13:46:17.644Z,7.30
2018-11-26T13:50:59.155Z,7.20
2018-11-26T13:55:40.648Z,7.20
2018-11-26T14:00:21.263Z,7.20
2018-11-26T14:05:02.400Z,7.20
2018-11-26T14:09:43.635Z,7.30
2018-11-26T14:14:24.006Z,7.30
2018-11-26T14:19:05.352Z,7.20
2018-11-26T14:23:45.917Z,7.20
2018-11-26T14:28:27.117Z,7.20
2018-11-26T14:33:07.859Z,7.20
2018-11-26T14:37:50.540Z,7.20
2018-11-26T14:42:30.769Z,7.20
2018-11-26T14:47:11.530Z,7.20
2018-11-26T14:51:52.988Z,7.20
2018-11-26T14:56:33.411Z,7.20
2018-11-26T15:01:14.777Z,7.20
2018-11-26T15:05:55.278Z,7.20
2018-11-26T15:10:35.808Z,7.20
2018-11-26T15:15:17.941Z,7.20
2018-11-26T15:19:59.801Z,7.30
2018-11-26T15:24:40.276Z,7.20
2018-11-26T15:29:21.359Z,7.20
2018-11-26T15:34:04.523Z,7.20
2018-11-26T15:38:47.393Z,7.20
2018-11-26T15:43:28.413Z,7.20
2018-11-26T15:48:12.881Z,7.20
2018-11-26T15:52:53.278Z,7.20
2018-11-26T15:57:34.319Z,7.10
2018-11-26T16:02:14.254Z,7.10
2018-11-26T16:06:54.553Z,7.10
2018-11-26T16:11:35.440Z,7.10
2018-11-26T16:16:16.042Z,7.10
2018-11-26T16:20:55.908Z,7.10
2018-11-26T16:25:36.080Z,7.10
2018-11-26T16:30:17.221Z,7.10
2018-11-26T16:34:57.416Z,7.10
2018-11-26T16:39:37.813Z,7.10
2018-11-26T16:44:17.980Z,7.10
2018-11-26T16:48:59.204Z,7.00
2018-11-26T16:53:39.163Z,7.00
2018-11-26T16:58:19.212Z,7.00
2018-11-26T17:03:00.145Z,7.00
2018-11-26T17:07:40.722Z,7.00
2018-11-26T17:12:21.276Z,7.00
2018-11-26T17:17:01.531Z,7.00
2018-11-26T17:21:41.779Z,7.00
2018-11-26T17:26:22.441Z,7.00
2018-11-26T17:31:03.341Z,7.00
2018-11-26T17:35:44.124Z,7.00
2018-11-26T17:40:24.841Z,7.00
2018-11-26T17:45:05.100Z,7.00
2018-11-26T17:49:45.128Z,7.00
2018-11-26T17:54:26.465Z,6.90
2018-11-26T17:59:06.712Z,6.90
2018-11-26T18:03:46.990Z,6.90
2018-11-26T18:08:27.644Z,6.80
2018-11-26T18:13:07.965Z,6.70
2018-11-26T18:17:49.227Z,6.70
2018-11-26T18:22:29.433Z,6.70
2018-11-26T18:27:10.281Z,6.60
2018-11-26T18:31:50.516Z,6.60
2018-11-26T18:36:30.331Z,6.50
2018-11-26T18:41:12.059Z,6.50
2018-11-26T18:45:53.047Z,6.40
2018-11-26T18:50:34.195Z,6.40
2018-11-26T18:55:15.020Z,6.30
2018-11-26T18:59:55.281Z,6.20
2018-11-26T19:04:34.992Z,6.20
2018-11-26T19:09:15.934Z,6.20
2018-11-26T19:14:05.753Z,6.10
2018-11-26T19:18:45.884Z,6.00
2018-11-26T19:23:26.898Z,6.00
2018-11-26T19:28:06.856Z,6.00
2018-11-26T19:32:46.924Z,6.10
2018-11-26T19:37:26.725Z,6.10
2018-11-26T19:42:06.854Z,6.00
2018-11-26T19:46:46.765Z,6.10
2018-11-26T19:51:26.991Z,6.10
2018-11-26T19:56:06.995Z,6.10
2018-11-26T20:00:47.344Z,6.10
2018-11-26T20:05:35.786Z,6.10
2018-11-26T20:10:15.771Z,6.10
2018-11-26T20:14:55.810Z,6.00
2018-11-26T20:19:35.891Z,6.00
2018-11-26T20:24:15.841Z,6.00
2018-11-26T20:28:57.048Z,5.90
2018-11-26T20:33:36.576Z,5.90
2018-11-26T20:38:16.623Z,5.80
2018-11-26T20:42:57.243Z,5.80
2018-11-26T20:47:37.547Z,5.70
2018-11-26T20:52:17.513Z,5.70
2018-11-26T20:56:57.425Z,5.70
2018-11-26T21:01:37.845Z,5.70
2018-11-26T21:06:18.057Z,5.60
2018-11-26T21:10:58.584Z,5.60
2018-11-26T21:15:38.792Z,5.60
2018-11-26T21:20:26.769Z,5.60
2018-11-26T21:25:10.129Z,5.60
2018-11-26T21:29:51.204Z,5.60
2018-11-26T21:34:31.626Z,5.60
2018-11-26T21:39:12.012Z,5.60
2018-11-26T21:43:52.637Z,5.60
2018-11-26T21:48:34.858Z,5.60
2018-11-26T21:53:15.221Z,5.60
2018-11-26T21:57:55.106Z,5.60
2018-11-26T22:02:35.520Z,5.60
2018-11-26T22:07:16.179Z,5.60
2018-11-26T22:11:56.290Z,5.70
2018-11-26T22:16:36.425Z,5.70
2018-11-26T22:21:16.479Z,5.70
2018-11-26T22:25:57.383Z,5.70
2018-11-26T22:30:38.080Z,5.70
2018-11-26T22:35:18.278Z,5.70
2018-11-26T22:39:57.992Z,5.70
2018-11-26T22:44:37.956Z,5.80
2018-11-26T22:49:18.791Z,5.80
2018-11-26T22:53:58.885Z,5.80
2018-11-26T22:58:38.855Z,5.80
2018-11-26T23:03:20.254Z,5.70
2018-11-26T23:08:00.911Z,5.60
2018-11-26T23:12:41.004Z,5.50
2018-11-26T23:17:21.936Z,5.50
2018-11-26T23:22:02.335Z,5.50
2018-11-26T23:26:43.817Z,5.50
2018-11-26T23:31:23.960Z,5.40
2018-11-26T23:36:04.444Z,5.40
2018-11-26T23:40:46.079Z,5.40
2018-11-26T23:45:27.879Z,5.40
2018-11-26T23:50:09.552Z,5.50
2018-11-26T23:54:49.739Z,5.40
2018-11-26T23:59:30.071Z,5.50
